sensor_id;sensor_type;location;lat;lon;timestamp;temperature;humidity
34279;DHT22;20538;51.528;9.942;2023-02-12T00:01:33;7.30;99.90
34279;DHT22;20538;51.528;9.942;2023-02-12T00:03:59;7.30;99.90
34279;DHT22;20538;51.528;9.942;2023-02-12T00:06:28;7.30;99.90
34279;DHT22;20538;51.528;9.942;2023-02-12T00:08:55;7.30;99.90
34279;DHT22;20538;51.528;9.942;2023-02-12T00:11:26;7.30;99.90
34279;DHT22;20538;51.528;9.942;2023-02-12T00:13:52;7.20;99.90
34279;DHT22;20538;51.528;9.942;2023-02-12T00:16:20;7.20;99.90
34279;DHT22;20538;51.528;9.942;2023-02-12T00:18:47;7.20;99.90
34279;DHT22;20538;51.528;9.942;2023-02-12T00:21:13;7.20;99.90
34279;DHT22;20538;51.528;9.942;2023-02-12T00:23:40;7.20;99.90
34279;DHT22;20538;51.528;9.942;2023-02-12T00:26:07;7.20;99.90
34279;DHT22;20538;51.528;9.942;2023-02-12T00:28:33;7.20;99.90
34279;DHT22;20538;51.528;9.942;2023-02-12T00:31:14;7.20;99.90
34279;DHT22;20538;51.528;9.942;2023-02-12T00:33:41;7.20;99.90
34279;DHT22;20538;51.528;9.942;2023-02-12T00:36:08;7.20;99.90
34279;DHT22;20538;51.528;9.942;2023-02-12T00:38:34;7.20;99.90
34279;DHT22;20538;51.528;9.942;2023-02-12T00:41:00;7.20;99.90
34279;DHT22;20538;51.528;9.942;2023-02-12T00:43:25;7.20;99.90
34279;DHT22;20538;51.528;9.942;2023-02-12T00:45:51;7.20;99.90
34279;DHT22;20538;51.528;9.942;2023-02-12T00:48:17;7.20;99.90
34279;DHT22;20538;51.528;9.942;2023-02-12T00:50:46;7.20;99.90
34279;DHT22;20538;51.528;9.942;2023-02-12T00:53:12;7.30;99.90
34279;DHT22;20538;51.528;9.942;2023-02-12T00:55:38;7.30;99.90
34279;DHT22;20538;51.528;9.942;2023-02-12T00:58:12;7.30;99.90
34279;DHT22;20538;51.528;9.942;2023-02-12T01:00:41;7.30;99.90
34279;DHT22;20538;51.528;9.942;2023-02-12T01:03:07;7.30;99.90
34279;DHT22;20538;51.528;9.942;2023-02-12T01:05:33;7.30;99.90
34279;DHT22;20538;51.528;9.942;2023-02-12T01:07:58;7.20;99.90
34279;DHT22;20538;51.528;9.942;2023-02-12T01:10:24;7.20;99.90
34279;DHT22;20538;51.528;9.942;2023-02-12T01:12:50;7.20;99.90
34279;DHT22;20538;51.528;9.942;2023-02-12T01:15:16;7.20;99.90
34279;DHT22;20538;51.528;9.942;2023-02-12T01:17:43;7.20;99.90
34279;DHT22;20538;51.528;9.942;2023-02-12T01:20:13;7.10;99.90
34279;DHT22;20538;51.528;9.942;2023-02-12T01:22:49;7.10;99.90
34279;DHT22;20538;51.528;9.942;2023-02-12T01:25:15;7.10;99.90
34279;DHT22;20538;51.528;9.942;2023-02-12T01:27:44;7.10;99.90
34279;DHT22;20538;51.528;9.942;2023-02-12T01:30:13;7.00;99.90
34279;DHT22;20538;51.528;9.942;2023-02-12T01:32:39;7.00;99.90
34279;DHT22;20538;51.528;9.942;2023-02-12T01:35:06;7.10;99.90
34279;DHT22;20538;51.528;9.942;2023-02-12T01:37:35;7.10;99.90
34279;DHT22;20538;51.528;9.942;2023-02-12T01:40:02;7.00;99.90
34279;DHT22;20538;51.528;9.942;2023-02-12T01:42:27;7.00;99.90
34279;DHT22;20538;51.528;9.942;2023-02-12T01:45:30;7.00;99.90
34279;DHT22;20538;51.528;9.942;2023-02-12T01:52:44;7.00;99.90
34279;DHT22;20538;51.528;9.942;2023-02-12T01:55:30;7.00;99.90
34279;DHT22;20538;51.528;9.942;2023-02-12T02:01:10;7.00;99.90
34279;DHT22;20538;51.528;9.942;2023-02-12T02:03:38;7.00;99.90
34279;DHT22;20538;51.528;9.942;2023-02-12T02:06:11;7.00;99.90
34279;DHT22;20538;51.528;9.942;2023-02-12T02:08:38;7.00;99.90
34279;DHT22;20538;51.528;9.942;2023-02-12T02:11:05;6.90;99.90
34279;DHT22;20538;51.528;9.942;2023-02-12T02:13:51;7.00;99.90
34279;DHT22;20538;51.528;9.942;2023-02-12T02:16:36;6.90;99.90
34279;DHT22;20538;51.528;9.942;2023-02-12T02:22:17;6.90;99.90
34279;DHT22;20538;51.528;9.942;2023-02-12T02:28:18;7.00;99.90
34279;DHT22;20538;51.528;9.942;2023-02-12T02:36:27;7.00;99.90
34279;DHT22;20538;51.528;9.942;2023-02-12T02:39:05;7.00;99.90
34279;DHT22;20538;51.528;9.942;2023-02-12T02:41:44;6.90;99.90
34279;DHT22;20538;51.528;9.942;2023-02-12T02:44:26;7.00;99.90
34279;DHT22;20538;51.528;9.942;2023-02-12T02:46:56;7.00;99.90
34279;DHT22;20538;51.528;9.942;2023-02-12T02:49:30;7.00;99.90
34279;DHT22;20538;51.528;9.942;2023-02-12T02:52:06;7.00;99.90
34279;DHT22;20538;51.528;9.942;2023-02-12T02:54:33;7.00;99.90
34279;DHT22;20538;51.528;9.942;2023-02-12T02:57:09;7.00;99.90
34279;DHT22;20538;51.528;9.942;2023-02-12T02:59:42;7.00;99.90
34279;DHT22;20538;51.528;9.942;2023-02-12T03:04:47;7.00;99.90
34279;DHT22;20538;51.528;9.942;2023-02-12T03:07:16;7.00;99.90
34279;DHT22;20538;51.528;9.942;2023-02-12T03:09:48;7.00;99.90
34279;DHT22;20538;51.528;9.942;2023-02-12T03:12:22;7.00;99.90
34279;DHT22;20538;51.528;9.942;2023-02-12T03:14:54;7.00;99.90
34279;DHT22;20538;51.528;9.942;2023-02-12T03:17:29;7.00;99.90
34279;DHT22;20538;51.528;9.942;2023-02-12T03:20:02;7.00;99.90
34279;DHT22;20538;51.528;9.942;2023-02-12T03:22:32;6.90;99.90
34279;DHT22;20538;51.528;9.942;2023-02-12T03:25:14;7.00;99.90
34279;DHT22;20538;51.528;9.942;2023-02-12T03:27:46;7.00;99.90
34279;DHT22;20538;51.528;9.942;2023-02-12T03:30:14;7.00;99.90
34279;DHT22;20538;51.528;9.942;2023-02-12T03:32:57;7.00;99.90
34279;DHT22;20538;51.528;9.942;2023-02-12T03:35:33;7.00;99.90
34279;DHT22;20538;51.528;9.942;2023-02-12T03:38:07;7.00;99.90
34279;DHT22;20538;51.528;9.942;2023-02-12T03:40:46;7.00;99.90
34279;DHT22;20538;51.528;9.942;2023-02-12T03:43:27;7.00;99.90
34279;DHT22;20538;51.528;9.942;2023-02-12T03:45:58;7.00;99.90
34279;DHT22;20538;51.528;9.942;2023-02-12T03:48:44;7.00;99.90
34279;DHT22;20538;51.528;9.942;2023-02-12T03:51:29;7.00;99.90
34279;DHT22;20538;51.528;9.942;2023-02-12T03:53:57;7.00;99.90
34279;DHT22;20538;51.528;9.942;2023-02-12T03:56:27;7.00;99.90
34279;DHT22;20538;51.528;9.942;2023-02-12T03:58:54;7.00;99.90
34279;DHT22;20538;51.528;9.942;2023-02-12T04:01:20;7.00;99.90
34279;DHT22;20538;51.528;9.942;2023-02-12T04:03:45;6.90;99.90
34279;DHT22;20538;51.528;9.942;2023-02-12T04:06:23;7.00;99.90
34279;DHT22;20538;51.528;9.942;2023-02-12T04:08:51;7.00;99.90
34279;DHT22;20538;51.528;9.942;2023-02-12T04:14:45;7.00;99.90
34279;DHT22;20538;51.528;9.942;2023-02-12T04:22:33;7.00;99.90
34279;DHT22;20538;51.528;9.942;2023-02-12T04:28:18;7.00;99.90
34279;DHT22;20538;51.528;9.942;2023-02-12T04:33:22;7.00;99.90
34279;DHT22;20538;51.528;9.942;2023-02-12T04:35:56;7.00;99.90
34279;DHT22;20538;51.528;9.942;2023-02-12T04:38:29;7.00;99.90
34279;DHT22;20538;51.528;9.942;2023-02-12T04:40:57;7.00;99.90
34279;DHT22;20538;51.528;9.942;2023-02-12T04:43:34;7.00;99.90
34279;DHT22;20538;51.528;9.942;2023-02-12T04:46:01;7.00;99.90
34279;DHT22;20538;51.528;9.942;2023-02-12T04:48:27;7.00;99.90
34279;DHT22;20538;51.528;9.942;2023-02-12T04:50:53;7.10;99.90
34279;DHT22;20538;51.528;9.942;2023-02-12T04:53:19;7.00;99.90
34279;DHT22;20538;51.528;9.942;2023-02-12T04:55:45;7.00;99.90
34279;DHT22;20538;51.528;9.942;2023-02-12T04:58:12;7.00;99.90
34279;DHT22;20538;51.528;9.942;2023-02-12T05:00:37;7.00;99.90
34279;DHT22;20538;51.528;9.942;2023-02-12T05:03:04;7.00;99.90
34279;DHT22;20538;51.528;9.942;2023-02-12T05:05:29;7.00;99.90
34279;DHT22;20538;51.528;9.942;2023-02-12T05:07:55;7.00;99.90
34279;DHT22;20538;51.528;9.942;2023-02-12T05:10:21;7.00;99.90
34279;DHT22;20538;51.528;9.942;2023-02-12T05:12:46;7.00;99.90
34279;DHT22;20538;51.528;9.942;2023-02-12T05:15:12;7.00;99.90
34279;DHT22;20538;51.528;9.942;2023-02-12T05:17:37;7.00;99.90
34279;DHT22;20538;51.528;9.942;2023-02-12T05:20:04;7.00;99.90
34279;DHT22;20538;51.528;9.942;2023-02-12T05:22:30;7.00;99.90
34279;DHT22;20538;51.528;9.942;2023-02-12T05:24:56;7.00;99.90
34279;DHT22;20538;51.528;9.942;2023-02-12T05:27:21;7.00;99.90
34279;DHT22;20538;51.528;9.942;2023-02-12T05:29:47;7.00;99.90
34279;DHT22;20538;51.528;9.942;2023-02-12T05:32:13;7.00;99.90
34279;DHT22;20538;51.528;9.942;2023-02-12T05:34:38;7.00;99.90
34279;DHT22;20538;51.528;9.942;2023-02-12T05:37:04;7.00;99.90
34279;DHT22;20538;51.528;9.942;2023-02-12T05:39:30;7.00;99.90
34279;DHT22;20538;51.528;9.942;2023-02-12T05:41:55;7.00;99.90
34279;DHT22;20538;51.528;9.942;2023-02-12T05:44:24;7.00;99.90
34279;DHT22;20538;51.528;9.942;2023-02-12T05:46:50;7.00;99.90
34279;DHT22;20538;51.528;9.942;2023-02-12T05:49:15;7.00;99.90
34279;DHT22;20538;51.528;9.942;2023-02-12T05:51:41;7.00;99.90
34279;DHT22;20538;51.528;9.942;2023-02-12T05:54:07;7.00;99.90
34279;DHT22;20538;51.528;9.942;2023-02-12T05:56:44;7.00;99.90
34279;DHT22;20538;51.528;9.942;2023-02-12T05:59:19;6.90;99.90
34279;DHT22;20538;51.528;9.942;2023-02-12T06:01:47;6.90;99.90
34279;DHT22;20538;51.528;9.942;2023-02-12T06:04:16;6.90;99.90
34279;DHT22;20538;51.528;9.942;2023-02-12T06:06:42;6.90;99.90
34279;DHT22;20538;51.528;9.942;2023-02-12T06:09:09;6.90;99.90
34279;DHT22;20538;51.528;9.942;2023-02-12T06:11:35;6.90;99.90
34279;DHT22;20538;51.528;9.942;2023-02-12T06:14:10;6.90;99.90
34279;DHT22;20538;51.528;9.942;2023-02-12T06:16:36;6.90;99.90
34279;DHT22;20538;51.528;9.942;2023-02-12T06:19:03;6.90;99.90
34279;DHT22;20538;51.528;9.942;2023-02-12T06:21:30;6.90;99.90
34279;DHT22;20538;51.528;9.942;2023-02-12T06:23:56;6.90;99.90
34279;DHT22;20538;51.528;9.942;2023-02-12T06:26:23;6.80;99.90
34279;DHT22;20538;51.528;9.942;2023-02-12T06:28:49;6.90;99.90
34279;DHT22;20538;51.528;9.942;2023-02-12T06:31:19;6.90;99.90
34279;DHT22;20538;51.528;9.942;2023-02-12T06:33:45;6.90;99.90
34279;DHT22;20538;51.528;9.942;2023-02-12T06:36:10;6.90;99.90
34279;DHT22;20538;51.528;9.942;2023-02-12T06:38:36;6.80;99.90
34279;DHT22;20538;51.528;9.942;2023-02-12T06:41:02;6.80;99.90
34279;DHT22;20538;51.528;9.942;2023-02-12T06:43:28;6.90;99.90
34279;DHT22;20538;51.528;9.942;2023-02-12T06:45:54;6.90;99.90
34279;DHT22;20538;51.528;9.942;2023-02-12T06:48:19;6.80;99.90
34279;DHT22;20538;51.528;9.942;2023-02-12T06:50:45;6.80;99.90
34279;DHT22;20538;51.528;9.942;2023-02-12T06:53:10;6.80;99.90
34279;DHT22;20538;51.528;9.942;2023-02-12T06:55:36;6.80;99.90
34279;DHT22;20538;51.528;9.942;2023-02-12T06:58:02;6.80;99.90
34279;DHT22;20538;51.528;9.942;2023-02-12T07:00:27;6.90;99.90
34279;DHT22;20538;51.528;9.942;2023-02-12T07:02:56;6.80;99.90
34279;DHT22;20538;51.528;9.942;2023-02-12T07:05:22;6.90;99.90
34279;DHT22;20538;51.528;9.942;2023-02-12T07:07:48;6.80;99.90
34279;DHT22;20538;51.528;9.942;2023-02-12T07:10:14;6.90;99.90
34279;DHT22;20538;51.528;9.942;2023-02-12T07:12:40;6.90;99.90
34279;DHT22;20538;51.528;9.942;2023-02-12T07:15:05;6.90;99.90
34279;DHT22;20538;51.528;9.942;2023-02-12T07:17:31;6.90;99.90
34279;DHT22;20538;51.528;9.942;2023-02-12T07:19:57;6.90;99.90
34279;DHT22;20538;51.528;9.942;2023-02-12T07:22:22;6.90;99.90
34279;DHT22;20538;51.528;9.942;2023-02-12T07:24:48;6.90;99.90
34279;DHT22;20538;51.528;9.942;2023-02-12T07:27:14;6.90;99.90
34279;DHT22;20538;51.528;9.942;2023-02-12T07:29:40;6.90;99.90
34279;DHT22;20538;51.528;9.942;2023-02-12T07:32:06;7.00;99.90
34279;DHT22;20538;51.528;9.942;2023-02-12T07:34:31;6.90;99.90
34279;DHT22;20538;51.528;9.942;2023-02-12T07:36:57;7.00;99.90
34279;DHT22;20538;51.528;9.942;2023-02-12T07:39:23;6.90;99.90
34279;DHT22;20538;51.528;9.942;2023-02-12T07:41:48;7.00;99.90
34279;DHT22;20538;51.528;9.942;2023-02-12T07:44:14;7.00;99.90
34279;DHT22;20538;51.528;9.942;2023-02-12T07:46:44;7.10;99.90
34279;DHT22;20538;51.528;9.942;2023-02-12T07:49:18;7.10;99.90
34279;DHT22;20538;51.528;9.942;2023-02-12T07:51:46;7.10;99.90
34279;DHT22;20538;51.528;9.942;2023-02-12T07:54:13;7.10;99.90
34279;DHT22;20538;51.528;9.942;2023-02-12T07:56:40;7.10;99.90
34279;DHT22;20538;51.528;9.942;2023-02-12T07:59:10;7.20;99.90
34279;DHT22;20538;51.528;9.942;2023-02-12T08:01:38;7.20;99.90
34279;DHT22;20538;51.528;9.942;2023-02-12T08:04:07;7.20;99.90
34279;DHT22;20538;51.528;9.942;2023-02-12T08:06:36;7.10;99.90
34279;DHT22;20538;51.528;9.942;2023-02-12T08:09:04;7.20;99.90
34279;DHT22;20538;51.528;9.942;2023-02-12T08:11:32;7.20;99.90
34279;DHT22;20538;51.528;9.942;2023-02-12T08:13:59;7.20;99.90
34279;DHT22;20538;51.528;9.942;2023-02-12T08:16:26;7.30;99.90
34279;DHT22;20538;51.528;9.942;2023-02-12T08:18:53;7.30;99.90
34279;DHT22;20538;51.528;9.942;2023-02-12T08:21:24;7.40;99.90
34279;DHT22;20538;51.528;9.942;2023-02-12T08:23:50;7.30;99.90
34279;DHT22;20538;51.528;9.942;2023-02-12T08:26:31;7.40;99.90
34279;DHT22;20538;51.528;9.942;2023-02-12T08:29:05;7.40;99.90
34279;DHT22;20538;51.528;9.942;2023-02-12T08:31:42;7.40;99.90
34279;DHT22;20538;51.528;9.942;2023-02-12T08:34:17;7.50;99.90
34279;DHT22;20538;51.528;9.942;2023-02-12T08:36:43;7.50;99.90
34279;DHT22;20538;51.528;9.942;2023-02-12T08:39:09;7.50;99.90
34279;DHT22;20538;51.528;9.942;2023-02-12T08:41:35;7.60;99.90
34279;DHT22;20538;51.528;9.942;2023-02-12T08:44:03;7.60;99.90
34279;DHT22;20538;51.528;9.942;2023-02-12T08:46:32;7.60;99.90
34279;DHT22;20538;51.528;9.942;2023-02-12T08:49:00;7.60;99.90
34279;DHT22;20538;51.528;9.942;2023-02-12T08:51:28;7.60;99.90
34279;DHT22;20538;51.528;9.942;2023-02-12T08:53:59;7.70;99.90
34279;DHT22;20538;51.528;9.942;2023-02-12T08:56:26;7.60;99.90
34279;DHT22;20538;51.528;9.942;2023-02-12T08:58:55;7.60;99.90
34279;DHT22;20538;51.528;9.942;2023-02-12T09:01:23;7.60;99.90
34279;DHT22;20538;51.528;9.942;2023-02-12T09:03:50;7.70;99.90
34279;DHT22;20538;51.528;9.942;2023-02-12T09:06:17;7.70;99.90
34279;DHT22;20538;51.528;9.942;2023-02-12T09:08:44;7.80;99.90
34279;DHT22;20538;51.528;9.942;2023-02-12T09:11:15;7.80;99.90
34279;DHT22;20538;51.528;9.942;2023-02-12T09:13:42;7.80;99.90
34279;DHT22;20538;51.528;9.942;2023-02-12T09:16:08;7.80;99.90
34279;DHT22;20538;51.528;9.942;2023-02-12T09:18:35;7.80;99.90
34279;DHT22;20538;51.528;9.942;2023-02-12T09:21:06;7.90;99.90
34279;DHT22;20538;51.528;9.942;2023-02-12T09:23:33;7.90;99.90
34279;DHT22;20538;51.528;9.942;2023-02-12T09:25:59;7.90;99.90
34279;DHT22;20538;51.528;9.942;2023-02-12T09:28:27;7.90;99.90
34279;DHT22;20538;51.528;9.942;2023-02-12T09:30:53;7.90;99.90
34279;DHT22;20538;51.528;9.942;2023-02-12T09:33:19;7.90;99.90
34279;DHT22;20538;51.528;9.942;2023-02-12T09:35:47;7.90;99.90
34279;DHT22;20538;51.528;9.942;2023-02-12T09:38:13;8.00;99.90
34279;DHT22;20538;51.528;9.942;2023-02-12T09:43:27;8.00;99.90
34279;DHT22;20538;51.528;9.942;2023-02-12T09:46:07;8.10;99.90
34279;DHT22;20538;51.528;9.942;2023-02-12T09:51:21;8.00;99.90
34279;DHT22;20538;51.528;9.942;2023-02-12T09:53:49;8.10;99.90
34279;DHT22;20538;51.528;9.942;2023-02-12T09:56:20;8.10;99.90
34279;DHT22;20538;51.528;9.942;2023-02-12T09:58:59;8.10;99.90
34279;DHT22;20538;51.528;9.942;2023-02-12T10:01:31;8.10;99.90
34279;DHT22;20538;51.528;9.942;2023-02-12T10:03:57;8.20;99.90
34279;DHT22;20538;51.528;9.942;2023-02-12T10:06:35;8.30;99.90
34279;DHT22;20538;51.528;9.942;2023-02-12T10:09:21;8.20;99.90
34279;DHT22;20538;51.528;9.942;2023-02-12T10:12:32;8.30;99.90
34279;DHT22;20538;51.528;9.942;2023-02-12T10:15:04;8.40;99.90
34279;DHT22;20538;51.528;9.942;2023-02-12T10:17:39;8.40;99.90
34279;DHT22;20538;51.528;9.942;2023-02-12T10:25:52;8.30;99.90
34279;DHT22;20538;51.528;9.942;2023-02-12T10:28:25;8.40;99.90
34279;DHT22;20538;51.528;9.942;2023-02-12T10:30:59;8.60;99.90
34279;DHT22;20538;51.528;9.942;2023-02-12T10:33:38;8.70;99.90
34279;DHT22;20538;51.528;9.942;2023-02-12T10:38:48;8.80;99.90
34279;DHT22;20538;51.528;9.942;2023-02-12T10:41:15;8.80;99.90
34279;DHT22;20538;51.528;9.942;2023-02-12T10:43:42;9.00;99.90
34279;DHT22;20538;51.528;9.942;2023-02-12T10:46:15;9.00;99.90
34279;DHT22;20538;51.528;9.942;2023-02-12T10:48:43;9.00;99.90
34279;DHT22;20538;51.528;9.942;2023-02-12T10:51:24;9.10;99.90
34279;DHT22;20538;51.528;9.942;2023-02-12T10:53:54;9.20;99.90
34279;DHT22;20538;51.528;9.942;2023-02-12T10:56:23;9.00;99.90
34279;DHT22;20538;51.528;9.942;2023-02-12T11:01:34;9.10;99.90
34279;DHT22;20538;51.528;9.942;2023-02-12T11:04:19;9.10;99.90
34279;DHT22;20538;51.528;9.942;2023-02-12T11:07:06;8.80;99.90
34279;DHT22;20538;51.528;9.942;2023-02-12T11:09:46;8.90;99.90
34279;DHT22;20538;51.528;9.942;2023-02-12T11:14:55;8.90;99.90
34279;DHT22;20538;51.528;9.942;2023-02-12T11:17:29;8.90;99.90
34279;DHT22;20538;51.528;9.942;2023-02-12T11:20:03;8.90;99.90
34279;DHT22;20538;51.528;9.942;2023-02-12T11:22:29;9.00;99.90
34279;DHT22;20538;51.528;9.942;2023-02-12T11:25:02;8.90;99.90
34279;DHT22;20538;51.528;9.942;2023-02-12T11:27:32;9.00;99.90
34279;DHT22;20538;51.528;9.942;2023-02-12T11:30:18;9.00;99.90
34279;DHT22;20538;51.528;9.942;2023-02-12T11:32:45;9.10;99.90
34279;DHT22;20538;51.528;9.942;2023-02-12T11:35:22;9.00;99.90
34279;DHT22;20538;51.528;9.942;2023-02-12T11:37:53;8.90;99.90
34279;DHT22;20538;51.528;9.942;2023-02-12T11:40:30;9.00;99.90
34279;DHT22;20538;51.528;9.942;2023-02-12T11:43:04;8.90;99.90
34279;DHT22;20538;51.528;9.942;2023-02-12T11:45:57;8.90;99.90
34279;DHT22;20538;51.528;9.942;2023-02-12T11:50:52;9.10;99.90
34279;DHT22;20538;51.528;9.942;2023-02-12T11:56:03;9.10;99.90
34279;DHT22;20538;51.528;9.942;2023-02-12T11:58:29;9.10;99.90
34279;DHT22;20538;51.528;9.942;2023-02-12T12:01:26;9.00;99.90
34279;DHT22;20538;51.528;9.942;2023-02-12T12:04:12;9.10;99.90
34279;DHT22;20538;51.528;9.942;2023-02-12T12:06:45;9.00;99.90
34279;DHT22;20538;51.528;9.942;2023-02-12T12:09:14;8.90;99.90
34279;DHT22;20538;51.528;9.942;2023-02-12T12:14:33;8.80;99.90
34279;DHT22;20538;51.528;9.942;2023-02-12T12:17:26;8.80;99.90
34279;DHT22;20538;51.528;9.942;2023-02-12T12:20:21;8.80;99.90
34279;DHT22;20538;51.528;9.942;2023-02-12T12:23:22;8.70;99.90
34279;DHT22;20538;51.528;9.942;2023-02-12T12:25:55;8.70;99.90
34279;DHT22;20538;51.528;9.942;2023-02-12T12:28:43;8.70;99.90
34279;DHT22;20538;51.528;9.942;2023-02-12T12:31:26;8.70;99.90
34279;DHT22;20538;51.528;9.942;2023-02-12T12:34:08;8.70;99.90
34279;DHT22;20538;51.528;9.942;2023-02-12T12:48:35;8.80;99.90
34279;DHT22;20538;51.528;9.942;2023-02-12T12:53:54;8.80;99.90
34279;DHT22;20538;51.528;9.942;2023-02-12T13:05:20;8.90;99.90
34279;DHT22;20538;51.528;9.942;2023-02-12T13:08:15;8.90;99.90
34279;DHT22;20538;51.528;9.942;2023-02-12T13:13:49;8.90;99.90
34279;DHT22;20538;51.528;9.942;2023-02-12T13:21:46;8.90;99.90
34279;DHT22;20538;51.528;9.942;2023-02-12T13:24:37;9.00;99.90
34279;DHT22;20538;51.528;9.942;2023-02-12T13:30:03;9.00;99.90
34279;DHT22;20538;51.528;9.942;2023-02-12T13:32:35;9.00;99.90
34279;DHT22;20538;51.528;9.942;2023-02-12T13:35:05;8.90;99.90
34279;DHT22;20538;51.528;9.942;2023-02-12T13:37:46;9.00;99.90
34279;DHT22;20538;51.528;9.942;2023-02-12T13:40:17;9.00;99.90
34279;DHT22;20538;51.528;9.942;2023-02-12T13:48:31;9.10;99.90
34279;DHT22;20538;51.528;9.942;2023-02-12T13:56:39;9.00;99.90
34279;DHT22;20538;51.528;9.942;2023-02-12T14:05:00;8.90;99.90
34279;DHT22;20538;51.528;9.942;2023-02-12T14:07:41;8.90;99.90
34279;DHT22;20538;51.528;9.942;2023-02-12T14:10:17;8.90;99.90
34279;DHT22;20538;51.528;9.942;2023-02-12T14:12:43;8.90;99.90
34279;DHT22;20538;51.528;9.942;2023-02-12T14:15:31;8.90;99.90
34279;DHT22;20538;51.528;9.942;2023-02-12T14:18:20;8.90;99.90
34279;DHT22;20538;51.528;9.942;2023-02-12T14:20:46;8.80;99.90
34279;DHT22;20538;51.528;9.942;2023-02-12T14:23:27;8.80;99.90
34279;DHT22;20538;51.528;9.942;2023-02-12T14:26:02;8.80;99.90
34279;DHT22;20538;51.528;9.942;2023-02-12T14:29:41;8.80;99.90
34279;DHT22;20538;51.528;9.942;2023-02-12T14:31:37;8.80;99.90
34279;DHT22;20538;51.528;9.942;2023-02-12T14:36:44;8.80;99.90
34279;DHT22;20538;51.528;9.942;2023-02-12T14:41:49;8.80;99.90
34279;DHT22;20538;51.528;9.942;2023-02-12T14:46:50;8.80;99.90
34279;DHT22;20538;51.528;9.942;2023-02-12T14:52:11;8.80;99.90
34279;DHT22;20538;51.528;9.942;2023-02-12T14:54:50;8.80;99.90
34279;DHT22;20538;51.528;9.942;2023-02-12T15:05:23;8.80;99.90
34279;DHT22;20538;51.528;9.942;2023-02-12T15:07:56;8.70;99.90
34279;DHT22;20538;51.528;9.942;2023-02-12T15:10:42;8.80;99.90
34279;DHT22;20538;51.528;9.942;2023-02-12T15:16:06;8.80;99.90
34279;DHT22;20538;51.528;9.942;2023-02-12T15:18:53;8.80;99.90
34279;DHT22;20538;51.528;9.942;2023-02-12T15:21:27;8.70;99.90
34279;DHT22;20538;51.528;9.942;2023-02-12T15:24:00;8.60;99.90
34279;DHT22;20538;51.528;9.942;2023-02-12T15:26:26;8.50;99.90
34279;DHT22;20538;51.528;9.942;2023-02-12T15:28:53;8.50;99.90
34279;DHT22;20538;51.528;9.942;2023-02-12T15:31:27;8.50;99.90
34279;DHT22;20538;51.528;9.942;2023-02-12T15:33:58;8.50;99.90
34279;DHT22;20538;51.528;9.942;2023-02-12T15:36:27;8.40;99.90
34279;DHT22;20538;51.528;9.942;2023-02-12T15:38:59;8.40;99.90
34279;DHT22;20538;51.528;9.942;2023-02-12T15:43:57;8.40;99.90
34279;DHT22;20538;51.528;9.942;2023-02-12T15:46:23;8.50;99.90
34279;DHT22;20538;51.528;9.942;2023-02-12T15:48:49;8.50;99.90
34279;DHT22;20538;51.528;9.942;2023-02-12T15:51:29;8.50;99.90
34279;DHT22;20538;51.528;9.942;2023-02-12T15:53:59;8.40;99.90
34279;DHT22;20538;51.528;9.942;2023-02-12T15:56:26;8.30;99.90
34279;DHT22;20538;51.528;9.942;2023-02-12T15:59:02;8.30;99.90
34279;DHT22;20538;51.528;9.942;2023-02-12T16:01:33;8.30;99.90
34279;DHT22;20538;51.528;9.942;2023-02-12T16:04:01;8.30;99.90
34279;DHT22;20538;51.528;9.942;2023-02-12T16:06:30;8.30;99.90
34279;DHT22;20538;51.528;9.942;2023-02-12T16:09:08;8.30;99.90
34279;DHT22;20538;51.528;9.942;2023-02-12T16:11:38;8.30;99.90
34279;DHT22;20538;51.528;9.942;2023-02-12T16:14:21;8.30;99.90
34279;DHT22;20538;51.528;9.942;2023-02-12T16:16:50;8.30;99.90
34279;DHT22;20538;51.528;9.942;2023-02-12T16:19:30;8.30;99.90
34279;DHT22;20538;51.528;9.942;2023-02-12T16:27:21;8.40;99.90
34279;DHT22;20538;51.528;9.942;2023-02-12T16:29:52;8.30;99.90
34279;DHT22;20538;51.528;9.942;2023-02-12T16:32:41;8.30;99.90
34279;DHT22;20538;51.528;9.942;2023-02-12T16:50:22;8.30;99.90
34279;DHT22;20538;51.528;9.942;2023-02-12T16:52:59;8.30;99.90
34279;DHT22;20538;51.528;9.942;2023-02-12T16:55:25;8.30;99.90
34279;DHT22;20538;51.528;9.942;2023-02-12T16:57:51;8.30;99.90
34279;DHT22;20538;51.528;9.942;2023-02-12T17:00:17;8.30;99.90
34279;DHT22;20538;51.528;9.942;2023-02-12T17:02:43;8.30;99.90
34279;DHT22;20538;51.528;9.942;2023-02-12T17:05:10;8.30;99.90
34279;DHT22;20538;51.528;9.942;2023-02-12T17:07:35;8.30;99.90
34279;DHT22;20538;51.528;9.942;2023-02-12T17:10:02;8.20;99.90
34279;DHT22;20538;51.528;9.942;2023-02-12T17:12:27;8.20;99.90
34279;DHT22;20538;51.528;9.942;2023-02-12T17:14:53;8.20;99.90
34279;DHT22;20538;51.528;9.942;2023-02-12T17:17:20;8.20;99.90
34279;DHT22;20538;51.528;9.942;2023-02-12T17:19:46;8.20;99.90
34279;DHT22;20538;51.528;9.942;2023-02-12T17:22:23;8.20;99.90
34279;DHT22;20538;51.528;9.942;2023-02-12T17:24:50;8.20;99.90
34279;DHT22;20538;51.528;9.942;2023-02-12T17:27:17;8.20;99.90
34279;DHT22;20538;51.528;9.942;2023-02-12T17:29:43;8.10;99.90
34279;DHT22;20538;51.528;9.942;2023-02-12T17:32:09;8.20;99.90
34279;DHT22;20538;51.528;9.942;2023-02-12T17:34:35;8.20;99.90
34279;DHT22;20538;51.528;9.942;2023-02-12T17:37:04;8.20;99.90
34279;DHT22;20538;51.528;9.942;2023-02-12T17:39:30;8.20;99.90
34279;DHT22;20538;51.528;9.942;2023-02-12T17:41:55;8.20;99.90
34279;DHT22;20538;51.528;9.942;2023-02-12T17:44:24;8.20;99.90
34279;DHT22;20538;51.528;9.942;2023-02-12T17:46:50;8.20;99.90
34279;DHT22;20538;51.528;9.942;2023-02-12T17:49:16;8.20;99.90
34279;DHT22;20538;51.528;9.942;2023-02-12T17:51:41;8.10;99.90
34279;DHT22;20538;51.528;9.942;2023-02-12T17:54:07;8.10;99.90
34279;DHT22;20538;51.528;9.942;2023-02-12T17:56:33;8.10;99.90
34279;DHT22;20538;51.528;9.942;2023-02-12T17:58:59;8.10;99.90
34279;DHT22;20538;51.528;9.942;2023-02-12T18:01:25;8.10;99.90
34279;DHT22;20538;51.528;9.942;2023-02-12T18:03:52;8.10;99.90
34279;DHT22;20538;51.528;9.942;2023-02-12T18:06:30;8.10;99.90
34279;DHT22;20538;51.528;9.942;2023-02-12T18:08:56;8.10;99.90
34279;DHT22;20538;51.528;9.942;2023-02-12T18:11:22;8.10;99.90
34279;DHT22;20538;51.528;9.942;2023-02-12T18:13:54;8.10;99.90
34279;DHT22;20538;51.528;9.942;2023-02-12T18:16:25;8.10;99.90
34279;DHT22;20538;51.528;9.942;2023-02-12T18:18:51;8.10;99.90
34279;DHT22;20538;51.528;9.942;2023-02-12T18:21:16;8.10;99.90
34279;DHT22;20538;51.528;9.942;2023-02-12T18:23:43;8.10;99.90
34279;DHT22;20538;51.528;9.942;2023-02-12T18:26:10;8.10;99.90
34279;DHT22;20538;51.528;9.942;2023-02-12T18:28:36;8.10;99.90
34279;DHT22;20538;51.528;9.942;2023-02-12T18:31:03;8.10;99.90
34279;DHT22;20538;51.528;9.942;2023-02-12T18:33:29;8.00;99.90
34279;DHT22;20538;51.528;9.942;2023-02-12T18:38:32;8.00;99.90
34279;DHT22;20538;51.528;9.942;2023-02-12T18:40:57;8.00;99.90
34279;DHT22;20538;51.528;9.942;2023-02-12T18:43:25;8.00;99.90
34279;DHT22;20538;51.528;9.942;2023-02-12T18:45:50;8.00;99.90
34279;DHT22;20538;51.528;9.942;2023-02-12T18:48:16;8.00;99.90
34279;DHT22;20538;51.528;9.942;2023-02-12T18:50:42;8.00;99.90